Time;durP1;ratioP1;P1;durP2;ratioP2;P2;SDS_P1;SDS_P2;PMS_P1;PMS_P2;Temp;Humidity;BMP_temperature;BMP_pressure;BME280_temperature;BME280_humidity;BME280_pressure;Samples;Min_cycle;Max_cycle;Signal;HPM_P1;HPM_P2
2022/05/24 00:02:23;;;;;;;13.32;7.63;;;13.20;99.90;;;;;;5117502;27;20410;-70
2022/05/24 00:04:48;;;;;;;;;;;13.20;99.90;;;;;;5136391;27;20092;-71
2022/05/24 00:07:14;;;;;;;11.90;6.90;;;13.20;99.90;;;;;;5135756;27;19923;-73
2022/05/24 00:09:39;;;;;;;14.07;8.10;;;13.20;99.90;;;;;;5117191;27;20078;-71
2022/05/24 00:12:06;;;;;;;9.10;6.93;;;13.20;99.90;;;;;;5135709;27;20122;-71
2022/05/24 00:17:15;;;;;;;9.23;6.63;;;13.20;99.90;;;;;;5135714;27;20514;-73
2022/05/24 00:19:41;;;;;;;9.50;6.03;;;13.30;99.90;;;;;;5135698;27;20043;-70
2022/05/24 00:22:06;;;;;;;8.40;6.50;;;13.30;99.90;;;;;;5135487;27;20047;-70
2022/05/24 00:24:32;;;;;;;9.45;6.53;;;13.20;99.90;;;;;;5135500;27;20047;-71
2022/05/24 00:26:58;;;;;;;8.55;6.15;;;13.20;99.90;;;;;;5135638;27;20039;-73
2022/05/24 00:29:24;;;;;;;8.95;5.93;;;13.20;99.90;;;;;;5117233;27;20043;-72
2022/05/24 00:31:49;;;;;;;13.75;5.88;;;13.20;99.90;;;;;;5135490;27;20491;-71
2022/05/24 00:34:15;;;;;;;11.02;6.05;;;13.50;99.90;;;;;;5117384;27;20147;-73
2022/05/24 00:36:41;;;;;;;13.57;6.85;;;13.20;99.90;;;;;;5135208;27;20043;-69
2022/05/24 00:39:06;;;;;;;11.10;6.55;;;13.50;99.90;;;;;;5135047;27;20051;-70
2022/05/24 00:41:37;;;;;;;10.30;6.97;;;13.70;99.90;;;;;;5135069;27;20588;-70
2022/05/24 00:44:07;;;;;;;13.85;7.70;;;13.10;99.90;;;;;;5135207;27;20088;-70
2022/05/24 00:47:07;;;;;;;14.23;7.82;;;13.10;99.90;;;;;;5135093;27;20418;-70
2022/05/24 00:49:38;;;;;;;14.40;7.88;;;13.10;99.90;;;;;;5111406;27;20053;-72
2022/05/24 00:52:14;;;;;;;13.93;8.00;;;13.10;99.90;;;;;;5134917;27;20043;-72
2022/05/24 00:54:44;;;;;;;11.57;8.07;;;13.00;99.90;;;;;;5135025;27;20047;-70
2022/05/24 00:57:34;;;;;;;11.15;7.65;;;13.70;99.90;;;;;;5135012;27;20044;-70
2022/05/24 01:00:05;;;;;;;10.98;7.82;;;12.90;99.90;;;;;;5134764;27;20051;-71
2022/05/24 01:02:31;;;;;;;12.35;8.50;;;13.40;99.90;;;;;;5134703;27;20416;-73
2022/05/24 01:04:58;;;;;;;13.13;8.00;;;12.80;99.90;;;;;;5114452;28;20518;-72
2022/05/24 01:07:24;;;;;;;10.05;7.13;;;12.80;99.90;;;;;;5127249;27;20498;-70
2022/05/24 01:10:01;;;;;;;10.57;7.72;;;12.80;99.90;;;;;;5134857;27;20043;-71
2022/05/24 01:12:39;;;;;;;;;;;12.70;99.90;;;;;;5135128;27;20043;-70
2022/05/24 01:15:07;;;;;;;10.80;7.57;;;12.70;99.90;;;;;;5134529;27;19923;-71
2022/05/24 01:17:34;;;;;;;11.43;7.80;;;12.70;99.90;;;;;;5134905;27;20099;-70
2022/05/24 01:20:00;;;;;;;12.07;6.68;;;13.40;99.90;;;;;;5134742;27;20047;-73
2022/05/24 01:22:44;;;;;;;10.43;6.65;;;12.70;99.90;;;;;;5134641;27;20039;-70
2022/05/24 01:25:36;;;;;;;11.38;6.47;;;12.70;99.90;;;;;;5134382;27;20051;-70
2022/05/24 01:28:08;;;;;;;9.60;7.03;;;12.70;99.90;;;;;;5134502;27;20439;-71
2022/05/24 01:30:34;;;;;;;11.25;6.80;;;12.60;99.90;;;;;;5116379;27;20055;-70
2022/05/24 01:38:31;;;;;;;10.98;6.88;;;12.60;99.90;;;;;;5134256;27;20054;-71
2022/05/24 01:40:56;;;;;;;8.43;7.50;;;12.60;99.90;;;;;;5134028;27;20499;-71
2022/05/24 01:43:26;;;;;;;12.13;6.93;;;12.60;99.90;;;;;;5134262;27;20130;-70
2022/05/24 01:46:02;;;;;;;12.75;7.50;;;12.60;99.90;;;;;;5134224;27;20039;-70
2022/05/24 01:48:37;;;;;;;9.60;7.50;;;12.60;99.90;;;;;;5134081;27;20464;-73
2022/05/24 01:51:05;;;;;;;11.48;7.85;;;12.70;99.90;;;;;;5134365;28;20545;-72
2022/05/24 01:53:41;;;;;;;11.82;7.05;;;12.70;99.90;;;;;;5134312;28;20091;-73
2022/05/24 01:56:11;;;;;;;9.60;6.70;;;12.60;99.90;;;;;;5134099;28;20058;-71
2022/05/24 01:58:39;;;;;;;12.32;7.03;;;12.60;99.90;;;;;;5133811;28;20075;-70
2022/05/24 02:01:30;;;;;;;12.55;6.93;;;12.60;99.90;;;;;;5115841;28;20049;-70
2022/05/24 02:04:00;;;;;;;11.90;7.47;;;12.60;99.90;;;;;;5134002;28;20545;-71
2022/05/24 02:06:28;;;;;;;8.48;6.47;;;12.60;99.90;;;;;;5133875;28;20082;-71
2022/05/24 02:08:54;;;;;;;9.23;6.28;;;12.70;99.90;;;;;;5133880;28;20517;-70
2022/05/24 02:11:23;;;;;;;10.85;6.45;;;12.70;99.90;;;;;;5134026;28;20444;-69
2022/05/24 02:13:53;;;;;;;11.55;7.05;;;13.00;99.90;;;;;;5133791;28;20043;-72
2022/05/24 02:16:22;;;;;;;12.45;6.72;;;12.70;99.90;;;;;;5134605;27;20490;-70
2022/05/24 02:18:50;;;;;;;8.88;6.30;;;12.70;99.90;;;;;;5119709;27;20586;-71
2022/05/24 02:21:17;;;;;;;9.63;6.25;;;12.80;99.90;;;;;;5119733;27;20265;-70
2022/05/24 02:23:48;;;;;;;12.73;6.70;;;12.70;99.90;;;;;;5137998;27;20047;-71
2022/05/24 02:26:16;;;;;;;8.45;6.03;;;12.70;99.90;;;;;;5137763;27;20484;-74
2022/05/24 02:28:42;;;;;;;10.50;6.18;;;12.90;99.90;;;;;;5137604;27;20041;-70
2022/05/24 02:31:11;;;;;;;;;;;12.70;99.90;;;;;;5120218;27;20043;-70
2022/05/24 02:33:37;;;;;;;9.55;5.68;;;12.70;99.90;;;;;;5138050;27;19973;-70
2022/05/24 02:36:03;;;;;;;;;;;12.80;99.90;;;;;;5119918;27;20050;-70
2022/05/24 02:38:29;;;;;;;9.32;5.78;;;12.80;99.90;;;;;;5137424;27;20295;-72
2022/05/24 02:43:39;;;;;;;10.30;6.05;;;13.00;99.90;;;;;;5137619;27;20112;-71
2022/05/24 02:46:05;;;;;;;11.00;7.05;;;12.70;99.90;;;;;;5137392;27;20483;-70
2022/05/24 02:48:31;;;;;;;9.55;7.07;;;12.70;99.90;;;;;;5119231;27;20510;-70
2022/05/24 02:50:57;;;;;;;8.95;6.47;;;12.70;99.90;;;;;;5137480;27;20043;-73
2022/05/24 02:53:24;;;;;;;12.35;7.25;;;12.70;99.90;;;;;;5137386;27;20519;-73
2022/05/24 02:55:49;;;;;;;11.88;8.43;;;12.70;99.90;;;;;;5137170;27;20122;-70
2022/05/24 02:58:16;;;;;;;13.27;8.10;;;12.70;99.90;;;;;;5137468;27;20123;-73
2022/05/24 03:00:42;;;;;;;10.57;8.10;;;12.80;99.90;;;;;;5119182;27;20498;-71
2022/05/24 03:03:08;;;;;;;17.15;8.43;;;12.80;99.90;;;;;;5137340;27;20074;-70
2022/05/24 03:05:34;;;;;;;12.15;9.35;;;12.80;99.90;;;;;;5137235;27;20054;-70
2022/05/24 03:10:44;;;;;;;14.25;9.73;;;12.90;99.90;;;;;;5137208;27;20053;-74
2022/05/24 03:15:55;;;;;;;17.92;10.50;;;12.90;99.90;;;;;;5136958;27;20053;-71
2022/05/24 03:18:22;;;;;;;17.25;11.40;;;12.80;99.90;;;;;;5136856;27;20039;-71
2022/05/24 03:20:48;;;;;;;17.58;11.70;;;12.90;99.90;;;;;;5136835;27;20043;-72
2022/05/24 03:23:15;;;;;;;16.23;10.80;;;12.80;99.90;;;;;;5136669;27;20086;-70
2022/05/24 03:25:41;;;;;;;20.08;12.05;;;12.90;99.90;;;;;;5136944;27;20043;-69
2022/05/24 03:28:07;;;;;;;20.20;11.20;;;12.90;99.90;;;;;;5117682;27;20054;-73
2022/05/24 03:30:39;;;;;;;19.02;12.38;;;12.90;99.90;;;;;;5136600;27;20518;-71
2022/05/24 03:33:05;;;;;;;19.52;14.02;;;12.90;99.90;;;;;;5118508;27;20043;-72
2022/05/24 03:35:31;;;;;;;22.65;14.60;;;12.80;99.90;;;;;;5131087;27;20113;-73
2022/05/24 03:37:56;;;;;;;23.52;14.45;;;12.90;99.90;;;;;;5133602;27;20393;-69
2022/05/24 03:40:22;;;;;;;27.52;14.90;;;12.90;99.90;;;;;;5136691;27;20052;-72
2022/05/24 03:42:51;;;;;;;24.42;16.25;;;13.30;99.90;;;;;;5118398;27;20061;-71
2022/05/24 03:45:18;;;;;;;22.10;14.75;;;13.00;99.90;;;;;;5118259;27;20062;-73
2022/05/24 03:47:44;;;;;;;27.90;17.23;;;12.90;99.90;;;;;;5136350;27;20053;-70
2022/05/24 03:50:10;;;;;;;27.33;16.65;;;13.00;99.90;;;;;;5136273;27;20130;-70
2022/05/24 03:52:36;;;;;;;;;;;13.40;99.90;;;;;;5118393;27;20039;-70
2022/05/24 03:55:03;;;;;;;27.83;17.88;;;13.00;99.90;;;;;;5136429;27;19923;-70
2022/05/24 04:00:16;;;;;;;28.40;18.88;;;13.00;99.90;;;;;;5117928;27;20230;-72
2022/05/24 04:02:42;;;;;;;31.15;17.92;;;13.10;99.90;;;;;;5136019;27;20085;-71
2022/05/24 04:05:08;;;;;;;30.38;18.15;;;13.10;99.90;;;;;;5115082;27;20507;-70
2022/05/24 04:07:33;;;;;;;28.95;18.67;;;13.10;99.90;;;;;;5129854;27;20050;-73
2022/05/24 04:10:01;;;;;;;29.50;20.20;;;13.10;99.90;;;;;;5136139;27;20039;-73
2022/05/24 04:12:26;;;;;;;30.30;19.88;;;13.10;99.90;;;;;;5135799;27;20100;-71
2022/05/24 04:14:52;;;;;;;36.35;21.15;;;13.10;99.90;;;;;;5117609;27;20051;-72
2022/05/24 04:17:17;;;;;;;32.40;20.52;;;13.10;99.90;;;;;;5135721;27;20043;-73
2022/05/24 04:19:43;;;;;;;32.17;19.10;;;13.20;99.90;;;;;;5117538;27;20051;-70
2022/05/24 04:22:09;;;;;;;31.02;19.20;;;13.40;99.90;;;;;;5135661;27;20050;-71
2022/05/24 04:24:34;;;;;;;34.20;20.75;;;13.20;99.90;;;;;;5135737;27;20440;-71
2022/05/24 04:27:00;;;;;;;30.10;20.02;;;13.20;99.90;;;;;;5135754;27;20127;-70
2022/05/24 04:29:25;;;;;;;36.03;21.73;;;13.50;99.90;;;;;;5117065;27;20169;-71
2022/05/24 04:31:51;;;;;;;30.90;20.33;;;13.20;99.90;;;;;;5135483;27;20069;-70
2022/05/24 04:34:17;;;;;;;32.90;20.00;;;13.40;99.90;;;;;;5108771;27;20043;-72
2022/05/24 04:36:42;;;;;;;30.83;20.98;;;13.30;99.90;;;;;;5117262;27;20058;-71
2022/05/24 04:39:08;;;;;;;34.33;22.40;;;13.30;99.90;;;;;;5135189;27;20141;-71
2022/05/24 04:44:17;;;;;;;33.78;22.25;;;13.30;99.90;;;;;;5135105;27;20054;-72
2022/05/24 04:49:27;;;;;;;30.70;22.13;;;13.40;99.90;;;;;;5135133;27;20058;-70
2022/05/24 04:51:54;;;;;;;32.72;21.15;;;13.40;99.90;;;;;;5135207;27;20039;-70
2022/05/24 04:54:20;;;;;;;35.03;20.98;;;13.40;99.90;;;;;;5135097;27;20494;-73
2022/05/24 04:56:46;;;;;;;29.15;19.27;;;13.40;99.90;;;;;;5134978;27;20050;-74
2022/05/24 04:59:13;;;;;;;31.23;19.88;;;13.40;99.90;;;;;;5134842;27;20118;-72
2022/05/24 05:01:38;;;;;;;31.45;19.92;;;13.50;99.90;;;;;;5134787;27;20088;-70
2022/05/24 05:04:04;;;;;;;32.40;18.65;;;13.40;99.90;;;;;;5135157;27;20043;-74
2022/05/24 05:06:30;;;;;;;32.75;19.45;;;13.40;99.90;;;;;;5134998;27;20463;-73
2022/05/24 05:08:56;;;;;;;29.20;19.70;;;13.50;99.90;;;;;;5116348;27;20490;-71
2022/05/24 05:11:21;;;;;;;30.55;18.13;;;13.60;99.90;;;;;;5134788;27;20050;-71
2022/05/24 05:13:47;;;;;;;24.83;17.05;;;13.50;99.90;;;;;;5134679;27;20099;-70
2022/05/24 05:16:13;;;;;;;25.42;18.08;;;13.50;99.90;;;;;;5115872;27;20046;-70
2022/05/24 05:18:39;;;;;;;24.45;18.58;;;13.50;99.90;;;;;;5134509;27;20051;-71
2022/05/24 05:21:04;;;;;;;27.77;17.52;;;13.50;99.90;;;;;;5134709;27;20049;-71
2022/05/24 05:23:30;;;;;;;29.92;17.42;;;13.60;99.90;;;;;;5134672;27;20053;-71
2022/05/24 05:25:56;;;;;;;29.85;17.27;;;13.60;99.90;;;;;;5134553;27;20126;-71
2022/05/24 05:28:21;;;;;;;23.85;16.83;;;13.60;99.90;;;;;;5116242;27;20043;-71
2022/05/24 05:33:33;;;;;;;25.33;16.90;;;13.60;99.90;;;;;;5134273;27;20090;-70
2022/05/24 05:35:59;;;;;;;28.48;18.27;;;13.60;99.90;;;;;;5134267;27;20047;-73
2022/05/24 05:38:25;;;;;;;29.95;18.13;;;13.70;99.90;;;;;;5116354;27;20100;-70
2022/05/24 05:40:53;;;;;;;23.45;17.60;;;13.70;99.90;;;;;;5134010;27;20047;-71
2022/05/24 05:43:19;;;;;;;22.15;15.38;;;13.70;99.90;;;;;;5115765;27;20054;-69
2022/05/24 05:45:53;;;;;;;30.30;17.15;;;13.70;99.90;;;;;;5134054;27;20506;-74
2022/05/24 05:48:19;;;;;;;25.15;18.63;;;13.90;99.90;;;;;;5134276;27;20078;-70
2022/05/24 05:50:46;;;;;;;22.30;16.58;;;13.70;99.90;;;;;;5133804;27;20054;-71
2022/05/24 05:53:16;;;;;;;27.08;17.13;;;13.90;99.90;;;;;;5134189;28;20051;-73
2022/05/24 05:55:42;;;;;;;29.90;17.50;;;13.70;99.90;;;;;;5134044;28;20396;-70
2022/05/24 05:58:08;;;;;;;27.40;16.80;;;13.80;99.90;;;;;;5134100;28;20039;-70
2022/05/24 06:00:35;;;;;;;30.30;18.67;;;13.60;99.90;;;;;;5133846;28;20072;-72
2022/05/24 06:03:01;;;;;;;32.38;17.95;;;13.70;99.90;;;;;;5134213;28;20399;-70
2022/05/24 06:05:27;;;;;;;25.88;17.38;;;13.70;99.90;;;;;;5129223;28;20042;-71
2022/05/24 06:07:54;;;;;;;29.05;17.88;;;13.70;99.90;;;;;;5112446;28;20047;-73
2022/05/24 06:10:20;;;;;;;27.50;18.20;;;13.70;99.90;;;;;;5116040;28;20050;-70
2022/05/24 06:12:47;;;;;;;26.42;17.52;;;13.70;99.90;;;;;;5133951;28;20047;-69
2022/05/24 06:15:12;;;;;;;32.33;18.33;;;13.70;99.90;;;;;;5133759;28;20043;-70
2022/05/24 06:17:46;;;;;;;29.00;16.98;;;13.70;99.90;;;;;;5115937;28;20096;-70
2022/05/24 06:20:12;;;;;;;27.05;16.73;;;13.70;99.90;;;;;;5133950;28;20039;-70
2022/05/24 06:22:37;;;;;;;29.33;18.00;;;13.70;99.90;;;;;;5134003;28;20104;-72
2022/05/24 06:25:04;;;;;;;25.02;16.40;;;13.80;99.90;;;;;;5133891;28;20126;-70
2022/05/24 06:27:30;;;;;;;27.73;16.85;;;13.80;99.90;;;;;;5132670;28;20040;-70
2022/05/24 06:29:56;;;;;;;31.45;17.38;;;13.80;99.90;;;;;;5133505;28;20035;-70
2022/05/24 06:32:22;;;;;;;29.83;16.65;;;13.80;99.90;;;;;;5133928;28;20043;-70
2022/05/24 06:34:49;;;;;;;29.55;17.77;;;13.80;99.90;;;;;;5133849;28;20042;-73
2022/05/24 06:37:15;;;;;;;27.83;16.05;;;13.80;99.90;;;;;;5114999;28;20094;-73
2022/05/24 06:39:41;;;;;;;;;;;13.80;99.90;;;;;;5115690;28;20511;-74
2022/05/24 06:42:07;;;;;;;26.35;14.88;;;13.80;99.90;;;;;;5133683;28;19933;-71
2022/05/24 06:44:33;;;;;;;24.92;15.38;;;13.80;99.90;;;;;;5133486;28;20040;-70
2022/05/24 06:46:59;;;;;;;22.23;15.20;;;13.80;99.90;;;;;;5115405;28;20051;-71
2022/05/24 06:49:24;;;;;;;28.02;16.48;;;13.80;99.90;;;;;;5133464;28;20042;-70
2022/05/24 06:51:50;;;;;;;25.20;17.25;;;13.80;99.90;;;;;;5115488;28;20054;-73
2022/05/24 06:54:16;;;;;;;26.73;16.67;;;13.80;99.90;;;;;;5133674;28;20047;-70
2022/05/24 06:56:41;;;;;;;22.52;15.00;;;14.40;99.90;;;;;;5133445;28;20049;-73
2022/05/24 07:04:48;;;;;;;25.40;14.25;;;13.80;99.90;;;;;;5136455;27;20100;-71
2022/05/24 07:07:13;;;;;;;23.77;13.88;;;13.80;99.90;;;;;;5118558;27;20448;-70
2022/05/24 07:09:40;;;;;;;23.52;14.02;;;13.80;99.90;;;;;;5118683;27;20043;-72
2022/05/24 07:12:06;;;;;;;22.20;13.63;;;13.70;99.90;;;;;;5118798;27;20043;-72
2022/05/24 07:14:33;;;;;;;;;;;13.70;99.90;;;;;;5137521;27;20096;-69
2022/05/24 07:16:58;;;;;;;25.75;14.90;;;13.70;99.90;;;;;;5136958;27;19919;-70
2022/05/24 07:19:25;;;;;;;22.42;14.07;;;13.70;99.90;;;;;;5136786;27;20075;-70
2022/05/24 07:21:51;;;;;;;22.63;14.73;;;13.70;99.90;;;;;;5137220;27;20043;-70
2022/05/24 07:24:17;;;;;;;20.73;13.80;;;13.80;99.90;;;;;;5118690;27;20407;-71
2022/05/24 07:26:44;;;;;;;20.13;14.57;;;13.70;99.90;;;;;;5136580;27;20050;-70
2022/05/24 07:29:10;;;;;;;24.50;14.05;;;13.70;99.90;;;;;;5118204;27;20039;-70
2022/05/24 07:31:38;;;;;;;27.65;13.75;;;13.70;99.90;;;;;;5136710;27;20082;-70
2022/05/24 07:34:04;;;;;;;19.75;12.20;;;13.70;99.90;;;;;;5118312;27;20051;-72
2022/05/24 07:36:29;;;;;;;20.40;14.50;;;13.70;99.90;;;;;;5136454;27;20047;-71
2022/05/24 07:38:55;;;;;;;22.17;11.68;;;13.60;99.90;;;;;;5136369;27;20047;-70
2022/05/24 07:46:50;;;;;;;18.17;13.18;;;13.60;99.90;;;;;;5132227;27;20518;-72
2022/05/24 07:49:16;;;;;;;23.00;13.27;;;13.70;99.90;;;;;;5115497;28;20039;-70
2022/05/24 07:51:41;;;;;;;17.10;11.65;;;13.70;99.90;;;;;;5131624;27;20047;-75
2022/05/24 07:54:08;;;;;;;20.50;12.57;;;13.70;99.90;;;;;;5133817;27;20047;-71
2022/05/24 07:56:33;;;;;;;19.98;12.68;;;13.70;99.90;;;;;;5099673;28;20089;-70
2022/05/24 07:58:59;;;;;;;23.30;13.02;;;13.70;99.90;;;;;;5116365;27;20031;-72
2022/05/24 08:01:25;;;;;;;20.85;12.55;;;13.80;99.90;;;;;;5098465;28;20515;-71
2022/05/24 08:03:51;;;;;;;22.30;13.65;;;13.80;99.90;;;;;;5114766;27;20467;-72
2022/05/24 08:06:17;;;;;;;19.75;12.73;;;13.80;99.90;;;;;;5115521;27;20127;-71
2022/05/24 08:08:43;;;;;;;18.80;11.10;;;14.20;99.90;;;;;;5115140;28;20130;-71
2022/05/24 08:11:09;;;;;;;20.98;11.75;;;13.90;99.90;;;;;;5094522;28;20044;-75
2022/05/24 08:13:35;;;;;;;15.25;11.85;;;13.90;99.90;;;;;;5088446;28;20059;-70
2022/05/24 08:16:02;;;;;;;21.58;12.20;;;14.00;99.90;;;;;;5096478;28;20046;-71
2022/05/24 08:18:28;;;;;;;20.38;11.82;;;13.90;99.90;;;;;;5084147;27;20079;-71
2022/05/24 08:20:54;;;;;;;;;;;14.00;99.90;;;;;;5132407;27;20051;-71
2022/05/24 08:23:22;;;;;;;21.20;11.35;;;14.00;99.90;;;;;;5115045;28;20547;-71
2022/05/24 08:25:48;;;;;;;23.02;11.73;;;14.00;99.90;;;;;;5115344;28;20040;-72
2022/05/24 08:28:13;;;;;;;20.85;12.23;;;14.00;99.90;;;;;;5096763;28;20053;-71
2022/05/24 08:30:40;;;;;;;19.17;12.38;;;14.10;99.90;;;;;;5114974;28;20050;-70
2022/05/24 08:33:06;;;;;;;15.65;11.23;;;14.10;99.90;;;;;;5096777;28;20044;-71
2022/05/24 08:35:35;;;;;;;;;;;14.00;99.90;;;;;;5115370;28;20049;-70
2022/05/24 08:38:02;;;;;;;14.52;9.50;;;14.00;99.90;;;;;;5114755;28;19924;-71
2022/05/24 08:40:29;;;;;;;15.30;10.25;;;14.10;99.90;;;;;;5131534;27;20087;-71
2022/05/24 08:43:15;;;;;;;14.73;10.60;;;14.00;99.90;;;;;;5099444;27;20126;-71
2022/05/24 08:48:36;;;;;;;15.80;10.75;;;14.10;99.90;;;;;;5134722;27;20134;-73
2022/05/24 08:51:22;;;;;;;15.50;10.93;;;14.10;99.90;;;;;;5135111;27;20047;-70
2022/05/24 08:53:51;;;;;;;22.80;10.27;;;14.10;99.90;;;;;;5134957;27;20043;-71
2022/05/24 08:56:32;;;;;;;16.05;11.05;;;14.10;99.90;;;;;;5134711;27;20494;-70
2022/05/24 08:59:16;;;;;;;13.60;8.50;;;14.10;99.90;;;;;;5115681;27;20428;-71
2022/05/24 09:01:44;;;;;;;18.70;9.82;;;14.20;99.90;;;;;;5134845;27;20122;-71
2022/05/24 09:04:11;;;;;;;13.93;10.02;;;14.20;99.90;;;;;;5134688;27;20047;-75
2022/05/24 09:06:46;;;;;;;18.40;9.48;;;14.20;99.90;;;;;;5134708;27;20050;-72
2022/05/24 09:09:23;;;;;;;18.80;10.13;;;14.20;99.90;;;;;;5134513;27;20049;-72
2022/05/24 09:12:07;;;;;;;16.23;8.05;;;14.30;99.90;;;;;;5116047;27;20043;-71
2022/05/24 09:14:51;;;;;;;14.70;8.57;;;14.30;99.90;;;;;;5134472;27;20135;-71
2022/05/24 09:17:59;;;;;;;11.65;8.13;;;15.30;99.90;;;;;;5134500;27;20054;-72
2022/05/24 09:20:26;;;;;;;14.07;6.82;;;14.40;99.90;;;;;;5034451;28;20513;-71
2022/05/24 09:23:21;;;;;;;14.00;6.80;;;14.50;99.90;;;;;;5051062;28;20053;-71
2022/05/24 09:25:57;;;;;;;11.25;7.05;;;14.60;99.90;;;;;;5049603;28;20102;-72
2022/05/24 09:28:50;;;;;;;9.37;6.87;;;14.80;99.90;;;;;;5050832;28;20051;-71
2022/05/24 09:31:28;;;;;;;17.27;7.78;;;14.70;99.90;;;;;;5050747;28;20374;-73
2022/05/24 09:33:59;;;;;;;10.75;7.60;;;14.70;99.90;;;;;;5050737;28;20056;-74
2022/05/24 09:36:36;;;;;;;13.82;7.55;;;14.80;99.90;;;;;;5050714;28;20493;-72
2022/05/24 09:39:25;;;;;;;9.88;6.50;;;14.80;99.90;;;;;;5050628;28;20052;-76
2022/05/24 09:42:00;;;;;;;9.15;6.05;;;15.00;99.90;;;;;;5050631;28;20124;-72
2022/05/24 09:44:28;;;;;;;9.65;6.07;;;15.00;99.90;;;;;;5050610;28;20449;-73
2022/05/24 09:46:54;;;;;;;9.07;6.28;;;15.00;99.90;;;;;;5050586;28;20049;-71
2022/05/24 09:49:34;;;;;;;8.77;5.80;;;15.10;99.90;;;;;;5050610;28;20182;-74
2022/05/24 09:52:14;;;;;;;13.10;7.63;;;15.20;99.90;;;;;;5050575;28;20063;-74
2022/05/24 09:54:58;;;;;;;9.95;5.65;;;15.30;99.90;;;;;;5033973;28;20061;-72
2022/05/24 09:57:29;;;;;;;7.65;5.50;;;15.40;99.90;;;;;;5102361;28;20051;-72
2022/05/24 10:00:20;;;;;;;11.85;6.47;;;15.40;99.90;;;;;;5115106;28;20055;-72
2022/05/24 10:02:46;;;;;;;10.90;6.07;;;15.30;99.90;;;;;;5134059;28;20126;-72
2022/05/24 10:05:23;;;;;;;9.70;6.22;;;15.80;99.90;;;;;;5133853;28;20146;-71
2022/05/24 10:07:58;;;;;;;;;;;15.10;99.90;;;;;;5115826;28;20035;-73
2022/05/24 10:10:43;;;;;;;9.85;6.07;;;15.10;99.90;;;;;;5081471;28;20412;-71
2022/05/24 10:13:19;;;;;;;6.60;4.45;;;15.10;99.90;;;;;;5133916;28;20043;-75
2022/05/24 10:16:12;;;;;;;9.00;4.78;;;15.10;99.90;;;;;;5133759;28;20047;-74
2022/05/24 10:18:56;;;;;;;10.35;5.32;;;15.10;99.90;;;;;;5049932;28;20291;-70
2022/05/24 10:21:40;;;;;;;8.90;4.55;;;15.10;99.90;;;;;;5049838;28;20049;-72
2022/05/24 10:24:30;;;;;;;8.48;5.00;;;15.10;99.90;;;;;;5017215;28;20114;-75
2022/05/24 10:27:22;;;;;;;9.07;5.05;;;15.10;99.90;;;;;;5033872;28;20049;-75
2022/05/24 10:30:08;;;;;;;9.75;5.15;;;15.00;99.90;;;;;;5050140;28;20053;-72
2022/05/24 10:39:30;;;;;;;9.65;5.80;;;14.60;99.90;;;;;;5050079;28;20144;-71
2022/05/24 10:42:35;;;;;;;9.52;6.05;;;14.40;99.90;;;;;;5033857;28;20053;-72
2022/05/24 10:45:16;;;;;;;11.20;7.20;;;14.30;99.90;;;;;;5033963;28;20053;-74
2022/05/24 10:48:04;;;;;;;10.02;5.90;;;14.30;99.90;;;;;;5033979;28;20050;-73
2022/05/24 10:50:39;;;;;;;7.75;5.55;;;14.30;99.90;;;;;;5027641;28;20108;-74
2022/05/24 10:53:11;;;;;;;9.15;5.90;;;14.40;99.90;;;;;;5033685;28;20049;-71
2022/05/24 10:55:57;;;;;;;9.05;6.53;;;14.50;99.90;;;;;;5052726;28;20499;-72
2022/05/24 10:58:23;;;;;;;7.03;4.93;;;14.50;99.90;;;;;;5098304;28;20534;-72
2022/05/24 11:00:54;;;;;;;6.35;4.90;;;14.60;99.90;;;;;;5116270;28;20047;-72
2022/05/24 11:03:28;;;;;;;7.18;5.03;;;14.70;99.90;;;;;;5116417;28;20052;-73
2022/05/24 11:06:01;;;;;;;6.43;4.10;;;14.70;99.90;;;;;;5116492;28;20122;-71
2022/05/24 11:08:46;;;;;;;10.07;5.22;;;14.70;99.90;;;;;;5115946;28;20079;-72
2022/05/24 11:11:26;;;;;;;6.07;4.38;;;14.70;99.90;;;;;;5116206;28;20536;-73
2022/05/24 11:14:07;;;;;;;9.27;5.07;;;14.70;99.90;;;;;;5116386;28;20112;-71
2022/05/24 11:16:45;;;;;;;7.30;4.40;;;14.70;99.90;;;;;;5116314;28;20480;-74
2022/05/24 11:19:23;;;;;;;2.65;1.88;;;14.80;99.90;;;;;;5116234;28;20399;-70
2022/05/24 11:22:13;;;;;;;5.97;1.88;;;14.80;99.90;;;;;;5098004;28;20047;-71
2022/05/24 11:24:53;;;;;;;3.17;0.30;;;15.00;99.90;;;;;;5116363;28;20051;-70
2022/05/24 11:27:30;;;;;;;0.65;0.30;;;14.80;99.90;;;;;;5116121;28;20404;-73
2022/05/24 11:29:58;;;;;;;;;;;14.60;99.90;;;;;;5116411;28;20527;-72
2022/05/24 11:32:38;;;;;;;1.02;0.45;;;14.30;99.90;;;;;;5097415;28;19972;-71
2022/05/24 11:35:06;;;;;;;0.43;0.20;;;14.00;99.90;;;;;;5097879;28;20050;-75
2022/05/24 11:37:36;;;;;;;0.68;0.40;;;13.70;99.90;;;;;;5116103;28;20043;-71
2022/05/24 11:40:31;;;;;;;2.53;0.32;;;13.50;99.90;;;;;;5107486;28;20056;-71
2022/05/24 11:43:09;;;;;;;3.20;0.40;;;13.30;99.90;;;;;;5115417;28;20039;-70
2022/05/24 12:09:26;;;;;;;2.35;1.35;;;13.40;99.90;;;;;;5110916;28;20051;-69
2022/05/24 12:12:18;;;;;;;3.55;1.35;;;13.50;99.90;;;;;;5015688;28;20053;-71
2022/05/24 12:14:44;;;;;;;2.22;1.50;;;13.60;99.90;;;;;;5028210;28;20053;-70
2022/05/24 12:17:15;;;;;;;3.70;1.33;;;14.10;99.90;;;;;;5027782;28;20061;-69
2022/05/24 12:19:44;;;;;;;2.22;0.93;;;13.80;99.90;;;;;;5028166;28;20416;-68
2022/05/24 12:22:18;;;;;;;1.60;1.08;;;13.90;99.90;;;;;;5011637;28;20057;-69
2022/05/24 12:24:47;;;;;;;2.88;1.38;;;14.00;99.90;;;;;;5011761;28;20100;-70
2022/05/24 12:27:40;;;;;;;2.60;1.70;;;14.10;99.90;;;;;;5027852;28;20665;-69
2022/05/24 12:30:20;;;;;;;3.28;1.48;;;14.10;99.90;;;;;;5027744;28;20636;-69
2022/05/24 12:32:46;;;;;;;3.58;1.27;;;14.20;99.90;;;;;;5027587;28;20050;-69
2022/05/24 12:35:13;;;;;;;;;;;14.50;99.90;;;;;;5028245;28;20053;-69
2022/05/24 12:37:46;;;;;;;2.22;1.50;;;14.40;99.90;;;;;;5027775;28;19925;-69
2022/05/24 12:40:12;;;;;;;2.35;1.25;;;14.40;99.90;;;;;;5027688;28;20049;-70
2022/05/24 12:42:49;;;;;;;4.15;0.80;;;14.40;99.90;;;;;;5027594;28;20417;-71
2022/05/24 12:45:21;;;;;;;1.90;1.25;;;14.40;99.90;;;;;;5027623;28;20085;-69
2022/05/24 12:47:52;;;;;;;2.88;0.98;;;14.40;99.90;;;;;;5052160;28;20059;-71
2022/05/24 12:50:39;;;;;;;2.25;2.05;;;14.60;99.90;;;;;;5091919;28;20071;-70
2022/05/24 12:53:09;;;;;;;2.85;0.95;;;14.50;99.90;;;;;;5109893;28;20048;-70
2022/05/24 12:55:54;;;;;;;3.13;1.85;;;14.60;99.90;;;;;;5109907;28;20136;-70
2022/05/24 12:58:35;;;;;;;2.45;1.10;;;14.50;99.90;;;;;;5109837;28;20399;-69
2022/05/24 13:01:17;;;;;;;1.45;1.10;;;14.50;99.90;;;;;;5109930;28;20039;-71
2022/05/24 13:03:44;;;;;;;2.65;1.10;;;14.60;99.90;;;;;;5109573;28;20450;-71
2022/05/24 13:06:10;;;;;;;2.65;1.00;;;14.70;99.90;;;;;;5097218;28;20048;-72
2022/05/24 13:08:36;;;;;;;2.50;1.05;;;14.80;99.90;;;;;;5078292;28;20135;-69
2022/05/24 13:11:02;;;;;;;1.40;0.80;;;14.90;99.90;;;;;;5078253;28;20054;-68
2022/05/24 13:13:28;;;;;;;2.03;1.10;;;14.90;99.90;;;;;;5078011;28;20055;-71
2022/05/24 13:15:59;;;;;;;2.83;1.00;;;14.90;99.90;;;;;;5111262;28;20040;-73
2022/05/24 13:18:28;;;;;;;1.95;0.98;;;14.80;99.90;;;;;;5095734;28;20056;-71
2022/05/24 13:20:56;;;;;;;6.53;0.77;;;14.70;99.90;;;;;;5077990;28;20055;-69
2022/05/24 13:23:48;;;;;;;1.98;1.00;;;14.70;99.90;;;;;;5094566;28;20085;-69
2022/05/24 13:26:17;;;;;;;3.00;0.93;;;14.60;99.90;;;;;;5095077;28;20492;-72
2022/05/24 13:28:44;;;;;;;1.38;0.30;;;14.50;99.90;;;;;;5078025;28;20040;-70
2022/05/24 13:34:14;;;;;;;1.35;0.40;;;14.10;99.90;;;;;;5093344;28;20048;-69
2022/05/24 13:36:54;;;;;;;1.90;0.40;;;13.90;99.90;;;;;;5095730;28;20058;-69
2022/05/24 13:39:48;;;;;;;0.90;0.55;;;13.70;99.90;;;;;;5095596;28;20453;-69
2022/05/24 13:42:17;;;;;;;1.35;0.47;;;13.60;99.90;;;;;;5095434;28;20048;-70
2022/05/24 13:45:23;;;;;;;2.00;0.60;;;13.70;99.90;;;;;;5095338;28;20051;-69
2022/05/24 13:47:54;;;;;;;2.42;0.60;;;13.80;99.90;;;;;;4993724;28;20449;-69
2022/05/24 13:50:31;;;;;;;1.63;0.75;;;14.00;99.90;;;;;;4977504;28;20108;-72
2022/05/24 13:53:21;;;;;;;2.67;0.60;;;14.20;99.90;;;;;;4993419;28;20049;-69
2022/05/24 13:55:58;;;;;;;4.50;0.95;;;14.30;99.90;;;;;;4976667;28;20054;-70
2022/05/24 13:58:30;;;;;;;2.65;1.00;;;14.40;99.90;;;;;;4993523;28;20054;-73
2022/05/24 14:01:09;;;;;;;2.40;1.20;;;14.50;99.90;;;;;;4993295;28;20050;-69
2022/05/24 14:03:40;;;;;;;2.50;1.45;;;14.60;99.90;;;;;;4987840;28;20074;-69
2022/05/24 14:06:08;;;;;;;2.65;1.25;;;14.70;99.90;;;;;;4973934;28;20058;-69
2022/05/24 14:08:36;;;;;;;2.92;1.20;;;14.70;99.90;;;;;;4973922;28;20609;-72
2022/05/24 14:11:05;;;;;;;4.03;1.58;;;14.70;99.90;;;;;;4957680;28;20093;-73
2022/05/24 14:13:31;;;;;;;5.70;1.30;;;14.90;99.90;;;;;;4973630;28;20050;-69
2022/05/24 14:15:58;;;;;;;2.45;1.00;;;14.90;99.90;;;;;;4973403;28;20066;-70